»·PEaware :: N12RF KBUR-KLAS

N12RF :: KBUR-KLAS

FLIGHT INFORMATION

Flight Status: Arrived
Operator: Privately registered:
United States
More flights under this callsign
Pilot: Andrew C. (32327)
Aircraft: SOCATA TBM-900
(TBM9)
More flights by this aircraft type
Origin: KBUR Bob Hope-Burbank
United States
Destination: KLAS McCarran Intl
United States
More flights between these airports :: More routes between these airports
Route: VNY3 DAG CRESO4
File this flight plan on PilotEdge
Remarks:
Altitude:
(Current/Filed)
27,000ft
Speed:
(Current/Filed)
250kts
Departed: 05-Jan-21 01:47 PM
Arrived: 05-Jan-21 02:43 PM
Distance/Time
Traveled:
193nm/0:56
Distance/Time
To Go:
Arrived

Flight Plot

Page will automatically refresh every two minutes.

Flight plan parsing failed; only flown route is shown


Map Options




Map Legend


Flown Route
Filed Route
Departure Airport
Arrival Airport
Navaid (VOR, NDB)
Fix

Horizontal Profiles

Position Reports

Time Latitude Longitude Heading Altitude Ground
Speed
05-Jan-21 13:26 34.200214 -118.358890 0 724ft 0kts
05-Jan-21 13:27 34.200214 -118.358890 280 724ft 0kts
05-Jan-21 13:28 34.200214 -118.358890 280 724ft 0kts
05-Jan-21 13:29 34.200214 -118.358890 280 724ft 0kts
05-Jan-21 13:30 34.200214 -118.358890 280 724ft 0kts
05-Jan-21 13:31 34.200214 -118.358890 280 724ft 0kts
05-Jan-21 13:32 34.200214 -118.358890 280 724ft 0kts
05-Jan-21 13:33 34.200214 -118.358890 280 724ft 0kts
05-Jan-21 13:34 34.200214 -118.358890 280 724ft 0kts
05-Jan-21 13:35 34.200214 -118.358890 280 724ft 0kts
05-Jan-21 13:36 34.200217 -118.358913 279 724ft 0kts
05-Jan-21 13:37 34.200219 -118.358921 279 724ft 0kts
05-Jan-21 13:38 34.200219 -118.358921 279 724ft 0kts
05-Jan-21 13:39 34.200219 -118.358921 279 724ft 0kts
05-Jan-21 13:40 34.199853 -118.358842 147 723ft 7kts
05-Jan-21 13:41 34.202017 -118.358769 346 730ft 14kts
05-Jan-21 13:42 34.207030 -118.360171 347 751ft 18kts
05-Jan-21 13:43 34.211281 -118.361325 352 766ft 0kts
05-Jan-21 13:44 34.211281 -118.361325 352 766ft 0kts
05-Jan-21 13:45 34.210850 -118.360061 167 764ft 33kts
05-Jan-21 13:46 34.180526 -118.359951 222 1883ft 152kts
05-Jan-21 13:47 34.145984 -118.401377 225 3528ft 183kts
05-Jan-21 13:48 34.113971 -118.452383 283 5067ft 201kts
05-Jan-21 13:49 34.162600 -118.461477 1 7563ft 163kts
05-Jan-21 13:50 34.207344 -118.459527 356 10316ft 158kts
05-Jan-21 13:51 34.255130 -118.459549 354 12807ft 171kts
05-Jan-21 13:52 34.305219 -118.459890 355 15414ft 175kts
05-Jan-21 13:53 34.356085 -118.460258 355 17926ft 178kts
05-Jan-21 13:54 34.399804 -118.433572 46 20107ft 201kts
05-Jan-21 13:55 34.434216 -118.378938 46 22445ft 205kts
05-Jan-21 13:56 34.469593 -118.322611 45 24697ft 212kts
05-Jan-21 13:57 34.505470 -118.265424 45 26834ft 216kts
05-Jan-21 13:58 34.547507 -118.198394 46 27020ft 279kts
05-Jan-21 13:59 34.596744 -118.119477 47 27004ft 303kts
05-Jan-21 14:00 34.636529 -118.027357 79 26993ft 326kts
05-Jan-21 14:01 34.647451 -117.917630 77 26999ft 328kts
05-Jan-21 14:02 34.659350 -117.807894 77 27000ft 328kts
05-Jan-21 14:03 34.680193 -117.701130 67 27000ft 323kts
05-Jan-21 14:04 34.706905 -117.596872 67 27000ft 324kts
05-Jan-21 14:05 34.733643 -117.492111 66 27000ft 324kts
05-Jan-21 14:06 34.760273 -117.387411 66 27000ft 325kts
05-Jan-21 14:07 34.786913 -117.282229 67 26996ft 325kts
05-Jan-21 14:08 34.813459 -117.176966 67 26996ft 324kts
05-Jan-21 14:09 34.839856 -117.071908 67 26997ft 324kts
05-Jan-21 14:10 34.866134 -116.966845 67 26997ft 324kts
05-Jan-21 14:11 34.892308 -116.861835 67 26997ft 325kts
05-Jan-21 14:12 34.918485 -116.756307 66 26997ft 324kts
05-Jan-21 14:13 34.946162 -116.644499 68 24706ft 364kts
05-Jan-21 14:14 34.981156 -116.535869 54 23995ft 323kts
05-Jan-21 14:16 35.022902 -116.442185 54 23995ft 306kts
05-Jan-21 14:17 35.064499 -116.348461 55 22942ft 326kts
05-Jan-21 14:18 35.108283 -116.249359 56 21468ft 335kts
05-Jan-21 14:19 35.152664 -116.148616 56 19988ft 333kts
05-Jan-21 14:20 35.195976 -116.050052 56 18536ft 328kts
05-Jan-21 14:21 35.238917 -115.952039 56 17097ft 326kts
05-Jan-21 14:22 35.280975 -115.855828 57 15678ft 315kts
05-Jan-21 14:23 35.326267 -115.765873 42 14291ft 307kts
05-Jan-21 14:24 35.384145 -115.689248 44 12936ft 306kts
05-Jan-21 14:25 35.442223 -115.611646 45 11571ft 306kts
05-Jan-21 14:26 35.498844 -115.535802 45 10226ft 297kts
05-Jan-21 14:27 35.551621 -115.465041 45 10014ft 269kts
05-Jan-21 14:28 35.602172 -115.397130 45 9780ft 267kts
05-Jan-21 14:29 35.652144 -115.329873 46 9447ft 273kts
05-Jan-21 14:29 35.695655 -115.271202 46 8369ft 280kts
05-Jan-21 14:31 35.755067 -115.190885 46 7777ft 259kts
05-Jan-21 14:32 35.813875 -115.148578 11 7782ft 251kts
05-Jan-21 14:33 35.882330 -115.130906 11 7780ft 251kts
05-Jan-21 14:33 35.939398 -115.116155 11 7779ft 251kts
05-Jan-21 14:34 36.008292 -115.098335 11 7780ft 248kts
05-Jan-21 14:36 36.074353 -115.081471 13 7748ft 183kts
05-Jan-21 14:36 36.108892 -115.062323 26 6885ft 133kts
05-Jan-21 14:37 36.143079 -115.051325 333 4977ft 133kts
05-Jan-21 14:38 36.143639 -115.091977 248 3506ft 137kts
05-Jan-21 14:39 36.131905 -115.126065 247 3264ft 98kts
05-Jan-21 14:40 36.112988 -115.148881 200 2616ft 92kts
05-Jan-21 14:41 36.092125 -115.160721 204 2182ft 56kts
05-Jan-21 14:42 36.083834 -115.166517 235 2181ft 10kts
05-Jan-21 14:43 36.083789 -115.166601 238 2181ft 0kts
05-Jan-21 14:44 36.082790 -115.168130 271 2181ft 12kts
05-Jan-21 14:45 36.081539 -115.170579 270 2181ft 0kts

Navigation Log

Ident Type
Flight plan parsing failed, navigation log unavailable